Thunder radar more information blitzortung!


Radar de pluja more information rain snow radar


Visita la nostra xarxa de llocs de meteo:

Template documentation
and downloads

And another site



No particular awareness of the weather is required.    There are no Weather-warnings

Pagina Historial Weather Underground text

Diari Resum Juny 10, 2017 Unitats:  Mètric    Imperial   Tant
« Previous Dia
SegĂźent Dia »
Diari Setmana Mensual Anual Personalitzada
  Maxima: Minima: Media:
Temperatura: 33.5 °C 15.4 °C 26 °C
Punt de rosada: 16.8 °C 7.8 °C 11.3 °C
Humitat: 82 % 24 % 43 %
Wind Speed: 17.2 km/h 0.0 km/h 6.3 km/h
RĂ fegues de vent: 17.2 km/h - -
Vent:- - SSW
Pression baro: 1019.9 hPa 1014.8 hPa -
Precipitacions: 0.0 mm    
Historical Graphs
 
 
Dades de taula per Juny 10, 2017
Temps Temperatura Punt de rosada Pression baro Vent Wind Speed RĂ fegues de vent Humitat Rainfall Rate (Hourly)
00:00 16.8 °C 13.7 °C 1017.8 hPa Calm     82 % 0.0 mm
00:01 19.7 °C 14.7 °C 1017.8 hPa NNW 1.9 km/h   73 % 0.0 mm
00:06 19.6 °C 14.8 °C 1018.8 hPa NNE 1.9 km/h 1.9 km/h 74 % 0.0 mm
00:10 16.6 °C 13.3 °C 1017.8 hPa WNW 1.6 km/h 3.2 km/h 81 % 0.0 mm
00:20 16.5 °C 13.2 °C 1017.8 hPa Calm   3.2 km/h 81 % 0.0 mm
00:30 16.0 °C 12.6 °C 1017.8 hPa WNW 1.6 km/h 3.2 km/h 80 % 0.0 mm
00:40 15.8 °C 12.2 °C 1017.8 hPa WSW 1.6 km/h 3.2 km/h 79 % 0.0 mm
00:50 15.6 °C 11.9 °C 1017.8 hPa Calm   3.2 km/h 79 % 0.0 mm
01:00 15.6 °C 11.9 °C 1017.8 hPa Calm   3.2 km/h 79 % 0.0 mm
01:10 15.6 °C 11.9 °C 1017.8 hPa WSW 1.6 km/h 3.2 km/h 79 % 0.0 mm
01:20 15.5 °C 11.9 °C 1017.8 hPa WSW 1.6 km/h 1.6 km/h 79 % 0.0 mm
01:30 15.4 °C 11.8 °C 1017.8 hPa WSW 1.6 km/h 3.2 km/h 79 % 0.0 mm
01:40 15.5 °C 11.9 °C 1017.8 hPa Calm   3.2 km/h 79 % 0.0 mm
01:50 15.4 °C 11.8 °C 1017.8 hPa SW 3.2 km/h 4.8 km/h 79 % 0.0 mm
02:00 15.4 °C 11.8 °C 1017.8 hPa SW 3.2 km/h 4.8 km/h 79 % 0.0 mm
02:10 15.5 °C 11.9 °C 1018.8 hPa SW 3.2 km/h 3.2 km/h 79 % 0.0 mm
02:20 15.7 °C 12.1 °C 1018.8 hPa SW 1.6 km/h 3.2 km/h 79 % 0.0 mm
02:30 16.2 °C 12.6 °C 1018.8 hPa Calm   1.6 km/h 79 % 0.0 mm
02:40 17.5 °C 13.8 °C 1018.8 hPa Calm     79 % 0.0 mm
02:50 18.8 °C 14.7 °C 1018.8 hPa Calm   1.6 km/h 77 % 0.0 mm
03:00 19.4 °C 14.7 °C 1018.8 hPa Calm     74 % 0.0 mm
03:10 19.7 °C 14.7 °C 1018.8 hPa SE 1.6 km/h 3.2 km/h 73 % 0.0 mm
03:20 19.3 °C 14.1 °C 1018.8 hPa SSW 3.2 km/h 3.2 km/h 72 % 0.0 mm
03:30 19.5 °C 14.3 °C 1018.8 hPa SW 1.6 km/h 3.2 km/h 72 % 0.0 mm
03:40 20.3 °C 14.7 °C 1018.8 hPa SW 1.6 km/h 3.2 km/h 70 % 0.0 mm
03:50 21.4 °C 15.2 °C 1018.8 hPa Calm   3.2 km/h 68 % 0.0 mm
04:00 22.0 °C 15.1 °C 1018.8 hPa ESE 1.6 km/h 3.2 km/h 65 % 0.0 mm
04:10 22.4 °C 15.5 °C 1018.8 hPa Calm   6.4 km/h 65 % 0.0 mm
04:20 22.6 °C 15.2 °C 1018.8 hPa SSW 1.6 km/h 3.2 km/h 63 % 0.0 mm
04:30 23.0 °C 15.6 °C 1019.9 hPa SW 3.2 km/h 3.2 km/h 63 % 0.0 mm
04:40 23.4 °C 15.7 °C 1018.8 hPa SW 1.6 km/h 4.8 km/h 62 % 0.0 mm
04:50 24.0 °C 15.8 °C 1018.8 hPa West 3.2 km/h 3.2 km/h 60 % 0.0 mm
05:00 24.8 °C 16.2 °C 1018.8 hPa Calm   4.8 km/h 59 % 0.0 mm
05:10 25.0 °C 16.2 °C 1019.9 hPa NE 1.6 km/h 3.2 km/h 58 % 0.0 mm
05:20 25.4 °C 15.7 °C 1019.9 hPa ENE 3.2 km/h 4.8 km/h 55 % 0.0 mm
05:30 26.2 °C 16.2 °C 1019.9 hPa SE 3.2 km/h 3.2 km/h 54 % 0.0 mm
05:40 26.9 °C 16.8 °C 1018.8 hPa SSE 1.6 km/h 4.8 km/h 54 % 0.0 mm
05:50 27.6 °C 16.6 °C 1018.8 hPa SSE 1.6 km/h 3.2 km/h 51 % 0.0 mm
10:56 27.7 °C 15.7 °C 1018.8 hPa SSE 3.7 km/h 3.7 km/h 48 % 0.0 mm
11:01 27.6 °C 14.9 °C 1018.8 hPa ESE 5.6 km/h 5.6 km/h 46 % 0.0 mm
11:06 28.0 °C 15.9 °C 1018.8 hPa West 3.7 km/h 3.7 km/h 48 % 0.0 mm
11:11 28.8 °C 16.4 °C 1018.8 hPa WSW 2.6 km/h 2.6 km/h 47 % 0.0 mm
11:16 29.0 °C 16.2 °C 1018.8 hPa WSW 3.7 km/h 3.7 km/h 46 % 0.0 mm
11:21 29.0 °C 15.9 °C 1017.8 hPa WSW 6.9 km/h 6.9 km/h 45 % 0.0 mm
11:26 29.0 °C 15.5 °C 1017.8 hPa SSW 7.4 km/h 7.4 km/h 44 % 0.0 mm
11:31 29.5 °C 15.6 °C 1017.8 hPa SW 7.4 km/h 7.4 km/h 43 % 0.0 mm
11:36 29.3 °C 15.4 °C 1017.8 hPa SW 5.6 km/h 5.6 km/h 43 % 0.0 mm
11:41 29.8 °C 15.5 °C 1017.8 hPa WNW 3.7 km/h 3.7 km/h 42 % 0.0 mm
11:46 29.9 °C 14.8 °C 1017.8 hPa WSW 1.9 km/h 2.6 km/h 40 % 0.0 mm
11:51 30.0 °C 14.6 °C 1017.8 hPa SW 9.3 km/h 9.3 km/h 39 % 0.0 mm
11:56 30.5 °C 14.6 °C 1017.8 hPa SW 3.7 km/h 3.7 km/h 38 % 0.0 mm
12:01 30.6 °C 13.4 °C 1017.8 hPa SSE 5.6 km/h 5.6 km/h 35 % 0.0 mm
12:06 30.0 °C 12.4 °C 1017.8 hPa South 3.9 km/h 3.9 km/h 34 % 0.0 mm
12:11 30.4 °C 12.8 °C 1017.8 hPa ESE 5.0 km/h 5.0 km/h 34 % 0.0 mm
12:16 29.8 °C 12.7 °C 1017.8 hPa East 7.4 km/h 7.4 km/h 35 % 0.0 mm
12:21 30.2 °C 13.1 °C 1017.8 hPa SE 9.3 km/h 9.3 km/h 35 % 0.0 mm
12:27 30.4 °C 14.5 °C 1017.8 hPa SW 11.1 km/h 11.1 km/h 38 % 0.0 mm
12:32 30.9 °C 14.9 °C 1017.8 hPa West 9.3 km/h 9.3 km/h 38 % 0.0 mm
12:37 30.9 °C 14.1 °C 1017.8 hPa WSW 5.6 km/h 5.6 km/h 36 % 0.0 mm
12:42 31.0 °C 14.2 °C 1017.8 hPa ESE 5.6 km/h 5.8 km/h 36 % 0.0 mm
12:47 31.0 °C 14.2 °C 1016.8 hPa WSW 7.4 km/h 7.4 km/h 36 % 0.0 mm
12:52 30.9 °C 14.1 °C 1016.8 hPa East 3.7 km/h 3.7 km/h 36 % 0.0 mm
12:57 31.3 °C 14.4 °C 1016.8 hPa SE 3.7 km/h 3.7 km/h 36 % 0.0 mm
13:02 31.5 °C 14.6 °C 1016.8 hPa SW 11.1 km/h 11.1 km/h 36 % 0.0 mm
13:07 31.7 °C 13.9 °C 1016.8 hPa SSE 5.6 km/h 5.6 km/h 34 % 0.0 mm
13:12 31.8 °C 14.4 °C 1016.8 hPa SW 4.2 km/h 4.2 km/h 35 % 0.0 mm
13:17 32.4 °C 15.0 °C 1016.8 hPa SSW 4.2 km/h 4.2 km/h 35 % 0.0 mm
13:22 32.1 °C 14.3 °C 1016.8 hPa NNE 5.6 km/h 5.6 km/h 34 % 0.0 mm
13:27 32.0 °C 13.7 °C 1016.8 hPa South 3.7 km/h 3.7 km/h 33 % 0.0 mm
13:32 31.8 °C 13.1 °C 1015.8 hPa ESE 7.4 km/h 7.4 km/h 32 % 0.0 mm
13:37 31.5 °C 12.8 °C 1015.8 hPa East 9.7 km/h 9.7 km/h 32 % 0.0 mm
13:42 32.0 °C 13.2 °C 1015.8 hPa East 7.4 km/h 7.4 km/h 32 % 0.0 mm
13:47 31.4 °C 13.2 °C 1015.8 hPa NE 9.3 km/h 9.3 km/h 33 % 0.0 mm
13:52 31.1 °C 12.9 °C 1015.8 hPa ESE 13.0 km/h 13.0 km/h 33 % 0.0 mm
13:57 30.6 °C 12.0 °C 1015.8 hPa ENE 16.7 km/h 16.7 km/h 32 % 0.0 mm
14:02 30.7 °C 11.6 °C 1015.8 hPa SSE 9.3 km/h 9.3 km/h 31 % 0.0 mm
14:07 30.8 °C 12.2 °C 1015.8 hPa ESE 14.8 km/h 14.8 km/h 32 % 0.0 mm
14:12 30.6 °C 11.1 °C 1015.8 hPa SSE 14.8 km/h 14.8 km/h 30 % 0.0 mm
14:17 30.9 °C 11.3 °C 1015.8 hPa ESE 14.8 km/h 14.8 km/h 30 % 0.0 mm
14:22 30.5 °C 10.4 °C 1015.8 hPa ESE 16.7 km/h 16.7 km/h 29 % 0.0 mm
14:27 30.6 °C 11.1 °C 1015.8 hPa ESE 13.7 km/h 13.7 km/h 30 % 0.0 mm
14:37 30.4 °C 10.4 °C 1015.8 hPa East 11.1 km/h 11.1 km/h 29 % 0.0 mm
14:42 30.9 °C 10.8 °C 1015.8 hPa SE 13.0 km/h 13.0 km/h 29 % 0.0 mm
14:47 30.9 °C 10.8 °C 1015.8 hPa ESE 9.3 km/h 9.3 km/h 29 % 0.0 mm
14:52 30.9 °C 10.8 °C 1015.8 hPa SW 13.0 km/h 13.0 km/h 29 % 0.0 mm
14:57 32.0 °C 11.2 °C 1015.8 hPa SW 7.4 km/h 7.4 km/h 28 % 0.0 mm
15:02 32.9 °C 12.0 °C 1015.8 hPa South 7.4 km/h 7.4 km/h 28 % 0.0 mm
15:07 32.6 °C 11.7 °C 1015.8 hPa SSE 5.6 km/h 5.6 km/h 28 % 0.0 mm
15:12 32.7 °C 11.3 °C 1015.8 hPa South 5.6 km/h 5.6 km/h 27 % 0.0 mm
15:17 32.7 °C 11.3 °C 1015.8 hPa NNW 9.3 km/h 9.3 km/h 27 % 0.0 mm
15:27 33.3 °C 11.8 °C 1015.8 hPa WSW 9.0 km/h 9.0 km/h 27 % 0.0 mm
15:32 33.4 °C 11.3 °C 1015.8 hPa SSW 9.5 km/h 9.5 km/h 26 % 0.0 mm
15:37 33.1 °C 11.0 °C 1015.8 hPa SW 9.3 km/h 9.3 km/h 26 % 0.0 mm
15:42 33.1 °C 10.4 °C 1015.8 hPa South 13.0 km/h 13.0 km/h 25 % 0.0 mm
15:47 33.5 °C 11.4 °C 1015.8 hPa South 11.1 km/h 11.1 km/h 26 % 0.0 mm
15:52 32.9 °C 10.3 °C 1015.8 hPa South 11.1 km/h 11.1 km/h 25 % 0.0 mm
15:57 32.6 °C 9.4 °C 1015.8 hPa SW 15.8 km/h 15.8 km/h 24 % 0.0 mm
16:02 32.3 °C 9.8 °C 1014.8 hPa SW 14.8 km/h 14.8 km/h 25 % 0.0 mm
16:07 32.2 °C 9.7 °C 1014.8 hPa SSW 10.3 km/h 10.3 km/h 25 % 0.0 mm
16:12 32.5 °C 9.9 °C 1014.8 hPa WSW 12.2 km/h 12.2 km/h 25 % 0.0 mm
16:17 32.6 °C 10.0 °C 1015.8 hPa SW 13.0 km/h 13.0 km/h 25 % 0.0 mm
16:22 32.1 °C 9.6 °C 1015.8 hPa WSW 11.1 km/h 11.1 km/h 25 % 0.0 mm
16:27 31.9 °C 10.0 °C 1015.8 hPa South 16.7 km/h 16.7 km/h 26 % 0.0 mm
16:32 32.0 °C 9.5 °C 1015.8 hPa WSW 16.7 km/h 16.7 km/h 25 % 0.0 mm
16:37 31.9 °C 10.0 °C 1015.8 hPa SW 11.1 km/h 11.1 km/h 26 % 0.0 mm
16:42 31.7 °C 9.8 °C 1015.8 hPa WSW 16.7 km/h 16.7 km/h 26 % 0.0 mm
16:47 31.9 °C 10.0 °C 1014.8 hPa SW 15.6 km/h 15.6 km/h 26 % 0.0 mm
16:52 32.2 °C 9.7 °C 1014.8 hPa SW 7.6 km/h 7.6 km/h 25 % 0.0 mm
16:57 31.9 °C 10.0 °C 1014.8 hPa SSW 16.7 km/h 16.7 km/h 26 % 0.0 mm
17:02 31.9 °C 10.0 °C 1015.8 hPa SW 12.6 km/h 12.6 km/h 26 % 0.0 mm
17:07 32.0 °C 9.5 °C 1015.8 hPa SSW 9.3 km/h 9.3 km/h 25 % 0.0 mm
17:12 31.9 °C 10.0 °C 1015.8 hPa SW 13.0 km/h 13.0 km/h 26 % 0.0 mm
17:17 31.5 °C 9.1 °C 1015.8 hPa SW 11.1 km/h 11.1 km/h 25 % 0.0 mm
17:22 31.5 °C 9.7 °C 1015.8 hPa WSW 9.5 km/h 9.5 km/h 26 % 0.0 mm
17:27 31.4 °C 9.6 °C 1015.8 hPa SW 17.2 km/h 17.2 km/h 26 % 0.0 mm
17:32 31.2 °C 9.4 °C 1015.8 hPa SSW 16.7 km/h 16.7 km/h 26 % 0.0 mm
17:37 31.2 °C 9.4 °C 1015.8 hPa WNW 9.3 km/h 9.3 km/h 26 % 0.0 mm
17:42 31.2 °C 9.4 °C 1015.8 hPa SW 13.0 km/h 13.0 km/h 26 % 0.0 mm
17:47 31.2 °C 9.4 °C 1015.8 hPa SW 6.4 km/h 6.4 km/h 26 % 0.0 mm
17:52 30.9 °C 9.2 °C 1015.8 hPa SW 16.7 km/h 16.7 km/h 26 % 0.0 mm
17:57 31.1 °C 9.9 °C 1015.8 hPa South 9.3 km/h 9.3 km/h 27 % 0.0 mm
18:02 31.3 °C 10.1 °C 1015.8 hPa SSW 7.4 km/h 7.4 km/h 27 % 0.0 mm
18:07 31.3 °C 10.1 °C 1015.8 hPa South 11.1 km/h 11.1 km/h 27 % 0.0 mm
18:12 31.3 °C 10.1 °C 1015.8 hPa WSW 12.6 km/h 12.6 km/h 27 % 0.0 mm
18:17 31.2 °C 10.0 °C 1015.8 hPa SW 11.9 km/h 11.9 km/h 27 % 0.0 mm
18:18 31.1 °C 9.9 °C 1015.8 hPa SW 11.1 km/h 11.1 km/h 27 % 0.0 mm
18:23 30.7 °C 9.6 °C 1015.8 hPa SW 10.0 km/h 10.0 km/h 27 % 0.0 mm
18:28 31.0 °C 9.8 °C 1015.8 hPa SSW 7.9 km/h 7.9 km/h 27 % 0.0 mm
18:33 30.3 °C 9.2 °C 1015.8 hPa South 13.0 km/h 13.0 km/h 27 % 0.0 mm
18:38 30.0 °C 8.9 °C 1015.8 hPa SSW 9.3 km/h 9.3 km/h 27 % 0.0 mm
18:43 30.3 °C 9.8 °C 1015.8 hPa SSW 11.1 km/h 11.1 km/h 28 % 0.0 mm
18:48 30.0 °C 9.5 °C 1015.8 hPa SW 16.7 km/h 16.7 km/h 28 % 0.0 mm
18:53 29.8 °C 9.3 °C 1015.8 hPa SW 9.3 km/h 9.3 km/h 28 % 0.0 mm
18:58 29.7 °C 9.2 °C 1015.8 hPa South 13.0 km/h 13.0 km/h 28 % 0.0 mm
19:03 29.4 °C 9.0 °C 1015.8 hPa SW 10.0 km/h 10.0 km/h 28 % 0.0 mm
19:08 29.2 °C 8.8 °C 1015.8 hPa SSW 7.4 km/h 7.4 km/h 28 % 0.0 mm
19:13 29.1 °C 8.7 °C 1015.8 hPa SW 17.2 km/h 17.2 km/h 28 % 0.0 mm
19:18 28.9 °C 9.1 °C 1015.8 hPa South 11.1 km/h 11.1 km/h 29 % 0.0 mm
19:20 21.7 °C 10.2 °C 1017.8 hPa WSW 3.2 km/h 3.2 km/h 48 % 0.0 mm
19:23 28.9 °C 9.1 °C 1015.8 hPa WSW 9.3 km/h 9.3 km/h 29 % 0.0 mm
19:24 28.9 °C 9.1 °C 1015.8 hPa SSW 6.4 km/h 6.4 km/h 29 % 0.0 mm
19:29 28.5 °C 8.7 °C 1015.8 hPa WSW 13.0 km/h 13.0 km/h 29 % 0.0 mm
19:30 21.5 °C 10.3 °C 1017.8 hPa WSW 1.6 km/h 3.2 km/h 49 % 0.0 mm
19:34 28.2 °C 8.5 °C 1015.8 hPa WSW 10.8 km/h 10.8 km/h 29 % 0.0 mm
19:40 21.4 °C 10.6 °C 1017.8 hPa WSW 1.6 km/h 3.2 km/h 50 % 0.0 mm
19:44 27.9 °C 8.7 °C 1015.8 hPa SSW 11.1 km/h 11.1 km/h 30 % 0.0 mm
19:49 27.7 °C 8.6 °C 1015.8 hPa WSW 14.8 km/h 14.8 km/h 30 % 0.0 mm
19:54 27.5 °C 8.4 °C 1015.8 hPa South 13.0 km/h 13.0 km/h 30 % 0.0 mm
19:59 27.3 °C 8.2 °C 1015.8 hPa SW 11.1 km/h 11.1 km/h 30 % 0.0 mm
20:00 21.2 °C 11.2 °C 1017.8 hPa Calm   3.2 km/h 53 % 0.0 mm
20:04 27.1 °C 8.0 °C 1015.8 hPa WSW 9.3 km/h 9.3 km/h 30 % 0.0 mm
20:09 27.0 °C 7.9 °C 1015.8 hPa WSW 7.4 km/h 7.4 km/h 30 % 0.0 mm
20:10 20.9 °C 11.5 °C 1017.8 hPa Calm     55 % 0.0 mm
20:14 26.9 °C 7.8 °C 1015.8 hPa SW 7.4 km/h 7.4 km/h 30 % 0.0 mm
20:19 26.8 °C 8.3 °C 1015.8 hPa SSW 7.4 km/h 7.4 km/h 31 % 0.0 mm
20:20 20.6 °C 11.2 °C 1017.8 hPa Calm     55 % 0.0 mm
20:24 26.6 °C 8.1 °C 1015.8 hPa SSW 5.6 km/h 5.6 km/h 31 % 0.0 mm
20:29 26.5 °C 8.0 °C 1015.8 hPa SSW 6.4 km/h 6.4 km/h 31 % 0.0 mm
20:30 20.4 °C 11.3 °C 1017.8 hPa Calm   3.2 km/h 56 % 0.0 mm
20:34 26.3 °C 7.8 °C 1015.8 hPa WSW 6.9 km/h 6.9 km/h 31 % 0.0 mm
20:39 26.1 °C 8.1 °C 1015.8 hPa WSW 5.6 km/h 5.6 km/h 32 % 0.0 mm
20:40 20.2 °C 11.7 °C 1017.8 hPa Calm     58 % 0.0 mm
20:44 25.9 °C 7.9 °C 1015.8 hPa SW 13.0 km/h 13.0 km/h 32 % 0.0 mm
20:49 25.7 °C 7.8 °C 1015.8 hPa SW 7.9 km/h 7.9 km/h 32 % 0.0 mm
20:50 20.2 °C 11.9 °C 1017.8 hPa Calm     59 % 0.0 mm
20:54 25.6 °C 8.1 °C 1015.8 hPa SW 6.1 km/h 6.1 km/h 33 % 0.0 mm
20:59 25.4 °C 7.9 °C 1015.8 hPa SSW 9.3 km/h 9.3 km/h 33 % 0.0 mm
21:00 20.4 °C 12.1 °C 1017.8 hPa WSW 1.6 km/h 3.2 km/h 59 % 0.0 mm
21:04 25.3 °C 7.9 °C 1015.8 hPa SW 9.3 km/h 9.3 km/h 33 % 0.0 mm
21:09 25.1 °C 8.1 °C 1015.8 hPa SSW 4.2 km/h 4.2 km/h 34 % 0.0 mm
21:10 20.6 °C 12.1 °C 1016.8 hPa West 3.2 km/h 3.2 km/h 58 % 0.0 mm
21:14 24.9 °C 8.4 °C 1015.8 hPa SSW 4.2 km/h 4.2 km/h 35 % 0.0 mm
21:19 24.7 °C 8.2 °C 1015.8 hPa SSW 11.1 km/h 11.1 km/h 35 % 0.0 mm
21:20 20.7 °C 12.4 °C 1016.8 hPa WSW 1.6 km/h 3.2 km/h 59 % 0.0 mm
21:24 24.5 °C 8.4 °C 1015.8 hPa SW 7.4 km/h 7.4 km/h 36 % 0.0 mm
21:29 24.4 °C 8.3 °C 1015.8 hPa SW 4.7 km/h 4.7 km/h 36 % 0.0 mm
21:30 20.6 °C 12.3 °C 1015.8 hPa Calm   1.6 km/h 59 % 0.0 mm
21:34 24.2 °C 8.6 °C 1015.8 hPa SSW 2.3 km/h 3.5 km/h 37 % 0.0 mm
21:39 24.0 °C 8.4 °C 1015.8 hPa SW 4.2 km/h 4.2 km/h 37 % 0.0 mm
21:40 20.1 °C 12.1 °C 1015.8 hPa West 1.6 km/h 3.2 km/h 60 % 0.0 mm
21:44 23.9 °C 8.3 °C 1015.8 hPa SW 5.6 km/h 5.6 km/h 37 % 0.0 mm
21:50 19.7 °C 12.2 °C 1015.8 hPa North 1.6 km/h 1.6 km/h 62 % 0.0 mm
21:54 23.6 °C 8.4 °C 1015.8 hPa SW 5.6 km/h 5.6 km/h 38 % 0.0 mm
21:59 23.5 °C 8.7 °C 1015.8 hPa WSW 3.7 km/h 3.7 km/h 39 % 0.0 mm
22:00 19.4 °C 11.9 °C 1015.8 hPa Calm   1.6 km/h 62 % 0.0 mm
22:04 23.4 °C 8.7 °C 1014.8 hPa WSW 3.7 km/h 3.7 km/h 39 % 0.0 mm
22:09 23.3 °C 8.6 °C 1014.8 hPa WSW 5.6 km/h 5.6 km/h 39 % 0.0 mm
22:10 19.1 °C 11.9 °C 1015.8 hPa Calm     63 % 0.0 mm
22:14 23.2 °C 8.8 °C 1014.8 hPa WSW 3.7 km/h 3.7 km/h 40 % 0.0 mm
22:19 23.0 °C 8.7 °C 1015.8 hPa WSW 3.7 km/h 3.7 km/h 40 % 0.0 mm
22:20 18.8 °C 12.1 °C 1015.8 hPa Calm     65 % 0.0 mm
22:24 22.9 °C 9.3 °C 1015.8 hPa WSW 2.3 km/h 2.3 km/h 42 % 0.0 mm
22:29 22.8 °C 9.2 °C 1015.8 hPa WSW 1.9 km/h 1.9 km/h 42 % 0.0 mm
22:30 18.5 °C 11.6 °C 1015.8 hPa North 1.6 km/h 1.6 km/h 64 % 0.0 mm
22:34 22.6 °C 9.4 °C 1015.8 hPa WSW 3.7 km/h 3.7 km/h 43 % 0.0 mm
22:39 22.6 °C 9.4 °C 1015.8 hPa WSW 1.9 km/h 1.9 km/h 43 % 0.0 mm
22:40 18.1 °C 11.2 °C 1015.8 hPa West 1.6 km/h 3.2 km/h 64 % 0.0 mm
22:44 22.5 °C 9.3 °C 1015.8 hPa West 4.2 km/h 4.2 km/h 43 % 0.0 mm
22:49 22.4 °C 9.6 °C 1016.8 hPa SW 3.7 km/h 3.7 km/h 44 % 0.0 mm
22:50 18.0 °C 11.1 °C 1015.8 hPa Calm   1.6 km/h 64 % 0.0 mm
22:54 22.3 °C 9.8 °C 1016.8 hPa SW 1.9 km/h 1.9 km/h 45 % 0.0 mm
22:59 22.2 °C 9.7 °C 1016.8 hPa WSW 2.6 km/h   45 % 0.0 mm
23:00 18.0 °C 11.1 °C 1015.8 hPa SW 1.6 km/h 3.2 km/h 64 % 0.0 mm
23:04 22.1 °C 9.6 °C 1016.8 hPa WSW 1.9 km/h 1.9 km/h 45 % 0.0 mm
23:09 22.1 °C 9.9 °C 1016.8 hPa WSW 2.6 km/h   46 % 0.0 mm
23:10 18.0 °C 11.1 °C 1014.8 hPa Calm     64 % 0.0 mm
23:14 22.0 °C 9.8 °C 1016.8 hPa WSW 3.7 km/h   46 % 0.0 mm
23:19 22.0 °C 9.8 °C 1017.8 hPa West 3.7 km/h 3.7 km/h 46 % 0.0 mm
23:20 17.9 °C 11.0 °C 1014.8 hPa South 1.6 km/h 3.2 km/h 64 % 0.0 mm
23:24 22.0 °C 9.8 °C 1017.8 hPa West 2.6 km/h 2.6 km/h 46 % 0.0 mm
23:29 22.0 °C 9.8 °C 1017.8 hPa WSW 3.7 km/h 3.7 km/h 46 % 0.0 mm
23:30 17.8 °C 10.9 °C 1014.8 hPa Calm   1.6 km/h 64 % 0.0 mm
23:34 22.0 °C 10.2 °C 1017.8 hPa West 3.2 km/h 3.2 km/h 47 % 0.0 mm
23:39 21.9 °C 10.1 °C 1017.8 hPa West 3.7 km/h 3.7 km/h 47 % 0.0 mm
23:40 17.8 °C 10.7 °C 1015.8 hPa SW 1.6 km/h 3.2 km/h 63 % 0.0 mm
23:44 21.9 °C 10.1 °C 1017.8 hPa WSW 3.7 km/h 3.7 km/h 47 % 0.0 mm
23:49 21.9 °C 10.1 °C 1017.8 hPa WSW 3.7 km/h 3.7 km/h 47 % 0.0 mm
23:50 17.6 °C 10.2 °C 1015.8 hPa Calm   1.6 km/h 62 % 0.0 mm
23:54 21.9 °C 10.4 °C 1017.8 hPa WSW 2.6 km/h 2.6 km/h 48 % 0.0 mm
23:59 21.9 °C 10.4 °C 1017.8 hPa West 3.7 km/h 3.7 km/h 48 % 0.0 mm
Meteo Sesrovires
Elogis d' Weather Underground - 3.75 mb

Guio original per  Jim McMurry - jmcmurry@mwt.net Adaptat per a la plantilla per  Wim van der Kuil - Leuven-Template.eu

Trobareu la nostra informacio del temps tambe a:

Weather Underground

AWEKAS